createdAt,value
2022-11-17T00:00:17.819Z,100966.09
2022-11-17T00:02:49.401Z,100976.78
2022-11-17T00:05:20.535Z,100973.22
2022-11-17T00:07:52.161Z,100976.78
2022-11-17T00:10:22.481Z,100975.66
2022-11-17T00:13:10.875Z,100979.25
2022-11-17T00:15:46.663Z,100983.13
2022-11-17T00:18:35.029Z,100986.41
2022-11-17T00:21:23.336Z,100996.59
2022-11-17T00:23:53.651Z,100997.44
2022-11-17T00:26:26.781Z,100989.97
2022-11-17T00:28:59.012Z,101014.00
2022-11-17T00:31:50.462Z,101019.50
2022-11-17T00:34:22.532Z,101015.63
2022-11-17T00:36:55.051Z,101018.69
2022-11-17T00:39:27.005Z,101021.44
2022-11-17T00:41:57.798Z,101022.28
2022-11-17T00:44:30.256Z,101027.78
2022-11-17T00:47:00.641Z,101035.75
2022-11-17T00:49:32.261Z,101032.97
2022-11-17T00:52:02.572Z,101032.19
2022-11-17T00:54:33.214Z,101037.69
2022-11-17T00:57:03.477Z,101041.25
2022-11-17T00:59:33.568Z,101046.47
2022-11-17T01:02:03.862Z,101043.72
2022-11-17T01:04:34.032Z,101038.50
2022-11-17T01:07:04.056Z,101047.28
2022-11-17T01:09:34.590Z,101048.13
2022-11-17T01:12:04.710Z,101043.72
2022-11-17T01:14:35.006Z,101044.53
2022-11-17T01:17:05.238Z,101054.44
2022-11-17T01:19:35.384Z,101052.19
2022-11-17T01:22:06.082Z,101050.56
2022-11-17T01:24:36.194Z,101054.13
2022-11-17T01:27:06.479Z,101050.22
2022-11-17T01:29:36.683Z,101057.38
2022-11-17T01:32:06.945Z,101062.91
2022-11-17T01:34:37.322Z,101072.00
2022-11-17T01:37:22.373Z,101074.78
2022-11-17T01:39:53.402Z,101076.69
2022-11-17T01:42:29.457Z,101083.06
2022-11-17T01:45:23.766Z,101077.03
2022-11-17T01:48:05.133Z,101083.34
2022-11-17T01:50:38.603Z,101083.06
2022-11-17T01:53:17.693Z,101082.22
2022-11-17T01:55:55.481Z,101090.19
2022-11-17T01:58:31.833Z,101091.00
2022-11-17T02:01:02.481Z,101088.25
2022-11-17T02:03:36.700Z,101087.44
2022-11-17T02:06:39.118Z,101084.69
2022-11-17T02:09:10.387Z,101085.47
2022-11-17T02:11:40.304Z,101092.63
2022-11-17T02:14:11.298Z,101086.31
2022-11-17T02:16:41.474Z,101084.34
2022-11-17T02:19:14.788Z,101089.56
2022-11-17T02:22:18.559Z,101094.28
2022-11-17T02:24:58.794Z,101092.31
2022-11-17T02:28:07.690Z,101093.16
2022-11-17T02:30:51.929Z,101095.59
2022-11-17T02:33:34.185Z,101099.97
2022-11-17T02:36:44.726Z,101094.78
2022-11-17T02:39:28.070Z,101099.19
2022-11-17T02:42:13.227Z,101102.72
2022-11-17T02:45:05.014Z,101090.06
2022-11-17T02:47:37.367Z,101097.22
2022-11-17T02:50:13.115Z,101088.94
2022-11-17T02:52:43.378Z,101082.28
2022-11-17T02:55:14.328Z,101083.13
2022-11-17T02:57:44.817Z,101093.34
2022-11-17T03:00:17.858Z,101087.00
2022-11-17T03:02:59.640Z,101080.03
2022-11-17T03:06:01.626Z,101089.97
2022-11-17T03:08:49.817Z,101080.88
2022-11-17T03:11:27.238Z,101085.75
2022-11-17T03:14:21.470Z,101091.25
2022-11-17T03:17:04.420Z,101081.06
2022-11-17T03:20:00.655Z,101076.34
2022-11-17T03:22:43.817Z,101082.38
2022-11-17T03:25:20.013Z,101080.44
2022-11-17T03:27:59.010Z,101082.06
2022-11-17T03:30:36.186Z,101076.84
2022-11-17T03:33:16.344Z,101076.03
2022-11-17T03:35:57.547Z,101066.63
2022-11-17T03:38:29.737Z,101069.88
2022-11-17T03:41:04.124Z,101068.28
2022-11-17T03:43:35.276Z,101064.34
2022-11-17T03:46:10.588Z,101063.22
2022-11-17T03:49:00.379Z,101053.81
2022-11-17T03:51:35.452Z,101058.22
2022-11-17T03:54:05.947Z,101044.41
2022-11-17T03:56:39.172Z,101034.50
2022-11-17T03:59:25.135Z,101035.34
2022-11-17T04:01:56.068Z,101029.81
2022-11-17T04:04:26.340Z,101022.31
2022-11-17T04:06:56.463Z,101017.31
2022-11-17T04:09:26.969Z,101010.66
2022-11-17T04:12:15.429Z,101004.03
2022-11-17T04:15:03.815Z,101004.53
2022-11-17T04:17:35.026Z,100985.19
2022-11-17T04:20:05.317Z,100991.56
2022-11-17T04:22:35.634Z,100983.78
2022-11-17T04:25:05.794Z,100975.00
2022-11-17T04:27:53.960Z,100968.84
2022-11-17T04:30:24.208Z,100969.16
2022-11-17T04:32:54.171Z,100964.16
2022-11-17T04:35:24.424Z,100963.03
2022-11-17T04:37:54.625Z,100960.25
2022-11-17T04:40:24.905Z,100953.56
2022-11-17T04:42:55.132Z,100943.38
2022-11-17T04:45:25.212Z,100948.06
2022-11-17T04:47:55.223Z,100932.81
2022-11-17T04:50:25.544Z,100933.13
2022-11-17T04:52:55.594Z,100933.63
2022-11-17T04:55:25.674Z,100930.34
2022-11-17T04:57:55.665Z,100921.78
2022-11-17T05:00:27.357Z,100917.06
2022-11-17T05:02:57.632Z,100915.13
2022-11-17T05:05:27.613Z,100903.25
2022-11-17T05:07:57.592Z,100896.09
2022-11-17T05:10:46.225Z,100900.81
2022-11-17T05:13:28.304Z,100889.44
2022-11-17T05:16:18.195Z,100886.38
2022-11-17T05:18:48.414Z,100888.81
2022-11-17T05:21:18.443Z,100879.41
2022-11-17T05:23:57.795Z,100875.84
2022-11-17T05:26:37.943Z,100866.41
2022-11-17T05:29:09.863Z,100864.81
2022-11-17T05:31:41.397Z,100860.56
2022-11-17T05:34:13.380Z,100859.75
2022-11-17T05:36:44.371Z,100857.47
2022-11-17T05:39:16.285Z,100857.47
2022-11-17T05:41:46.732Z,100846.13
2022-11-17T05:44:17.459Z,100849.69
2022-11-17T05:46:47.746Z,100842.25
2022-11-17T05:49:17.867Z,100832.34
2022-11-17T05:51:52.492Z,100823.72
2022-11-17T05:54:23.270Z,100812.66
2022-11-17T05:56:53.361Z,100806.81
2022-11-17T05:59:54.204Z,100800.16
2022-11-17T06:02:34.426Z,100797.41
2022-11-17T06:05:05.467Z,100793.19
2022-11-17T06:07:37.025Z,100777.44
2022-11-17T06:10:07.936Z,100775.81
2022-11-17T06:12:38.091Z,100770.78
2022-11-17T06:15:08.698Z,100766.06
2022-11-17T06:17:45.790Z,100757.78
2022-11-17T06:20:45.849Z,100749.19
2022-11-17T06:23:16.122Z,100744.78
2022-11-17T06:25:47.209Z,100737.63
2022-11-17T06:28:20.934Z,100730.97
2022-11-17T06:30:52.156Z,100727.88
2022-11-17T06:33:21.955Z,100722.69
2022-11-17T06:35:52.524Z,100705.31
2022-11-17T06:38:22.767Z,100704.19
2022-11-17T06:40:54.160Z,100697.03
2022-11-17T06:43:24.431Z,100698.34
2022-11-17T06:45:54.735Z,100698.00
2022-11-17T06:48:29.179Z,100686.16
2022-11-17T06:50:59.362Z,100686.16
2022-11-17T06:53:30.619Z,100685.00
2022-11-17T06:56:08.726Z,100681.91
2022-11-17T06:58:41.136Z,100673.13
2022-11-17T07:01:16.980Z,100667.31
2022-11-17T07:03:47.206Z,100671.69
2022-11-17T07:06:18.412Z,100671.69
2022-11-17T07:08:48.863Z,100670.06
2022-11-17T07:11:19.600Z,100665.03
2022-11-17T07:13:49.924Z,100668.25
2022-11-17T07:16:24.041Z,100672.19
2022-11-17T07:18:56.572Z,100653.16
2022-11-17T07:21:26.763Z,100661.94
2022-11-17T07:23:56.800Z,100661.13
2022-11-17T07:26:26.910Z,100664.69
2022-11-17T07:28:57.458Z,100663.56
2022-11-17T07:31:27.702Z,100669.88
2022-11-17T07:33:57.901Z,100662.72
2022-11-17T07:36:28.244Z,100656.91
2022-11-17T07:38:58.282Z,100657.69
2022-11-17T07:41:28.397Z,100649.41
2022-11-17T07:43:58.771Z,100646.66
2022-11-17T07:46:28.996Z,100642.25
2022-11-17T07:48:59.331Z,100639.50
2022-11-17T07:51:29.915Z,100623.41
2022-11-17T07:53:59.966Z,100616.63
2022-11-17T07:56:30.179Z,100609.63
2022-11-17T07:59:00.582Z,100606.84
2022-11-17T08:01:31.821Z,100607.69
2022-11-17T08:04:01.661Z,100604.09
2022-11-17T08:06:31.790Z,100601.31
2022-11-17T08:09:01.994Z,100601.31
2022-11-17T08:11:32.113Z,100604.91
2022-11-17T08:14:02.206Z,100611.38
2022-11-17T08:16:33.100Z,100610.25
2022-11-17T08:19:03.396Z,100617.75
2022-11-17T08:21:33.714Z,100627.66
2022-11-17T08:24:03.980Z,100629.75
2022-11-17T08:26:34.225Z,100633.81
2022-11-17T08:29:04.504Z,100637.72
2022-11-17T08:31:35.374Z,100642.91
2022-11-17T08:34:05.729Z,100648.41
2022-11-17T08:36:35.977Z,100643.72
2022-11-17T08:39:06.765Z,100650.03
2022-11-17T08:41:36.898Z,100657.19
2022-11-17T08:44:07.487Z,100662.72
2022-11-17T08:46:37.748Z,100658.81
2022-11-17T08:49:08.005Z,100669.88
2022-11-17T08:51:38.146Z,100668.25
2022-11-17T08:54:08.184Z,100671.00
2022-11-17T08:56:38.323Z,100682.06
2022-11-17T08:59:08.528Z,100683.69
2022-11-17T09:01:38.607Z,100686.78
2022-11-17T09:04:08.768Z,100697.50
2022-11-17T09:06:38.812Z,100696.56
2022-11-17T09:09:08.908Z,100695.88
2022-11-17T09:11:39.377Z,100708.06
2022-11-17T09:14:10.224Z,100731.47
2022-11-17T09:16:40.594Z,100733.41
2022-11-17T09:19:10.816Z,100738.94
2022-11-17T09:21:40.854Z,100743.34
2022-11-17T09:24:11.953Z,100743.34
2022-11-17T09:26:43.340Z,100750.47
2022-11-17T09:29:13.242Z,100767.06
2022-11-17T09:31:43.444Z,100771.78
2022-11-17T09:34:13.756Z,100786.41
2022-11-17T09:36:44.468Z,100789.81
2022-11-17T09:39:14.687Z,100805.59
2022-11-17T09:41:53.553Z,100796.00
2022-11-17T09:44:33.899Z,100787.22
2022-11-17T09:47:23.903Z,100771.28
2022-11-17T09:50:20.255Z,100769.66
2022-11-17T09:52:53.447Z,100775.53
2022-11-17T09:55:39.722Z,100803.16
2022-11-17T09:58:28.062Z,100816.13
2022-11-17T10:00:58.802Z,100828.66
2022-11-17T10:03:44.906Z,100838.88
2022-11-17T10:06:15.975Z,100831.72
2022-11-17T10:09:07.119Z,100830.06
2022-11-17T10:11:44.500Z,100817.09
2022-11-17T10:14:19.165Z,100813.03
2022-11-17T10:16:55.002Z,100811.88
2022-11-17T10:19:26.833Z,100810.28
2022-11-17T10:22:06.088Z,100818.56
2022-11-17T10:24:45.763Z,100807.03
2022-11-17T10:27:32.398Z,100811.41
2022-11-17T10:30:09.316Z,100802.28
2022-11-17T10:32:57.880Z,100794.66
2022-11-17T10:35:29.585Z,100787.19
2022-11-17T10:38:02.602Z,100788.81
2022-11-17T10:40:52.443Z,100781.97
2022-11-17T10:43:23.530Z,100782.47
2022-11-17T10:46:06.736Z,100799.88
2022-11-17T10:48:41.571Z,100803.78
2022-11-17T10:51:21.638Z,100820.34
2022-11-17T10:54:20.262Z,100828.28
2022-11-17T10:56:57.707Z,100832.19
2022-11-17T10:59:44.133Z,100836.91
2022-11-17T11:02:31.362Z,100839.66
2022-11-17T11:05:16.923Z,100846.81
2022-11-17T11:07:47.796Z,100843.22
2022-11-17T11:10:37.107Z,100859.81
2022-11-17T11:13:45.884Z,100871.19
2022-11-17T11:16:16.105Z,100880.59
2022-11-17T11:18:46.410Z,100888.88
2022-11-17T11:21:49.851Z,100892.44
2022-11-17T11:24:36.048Z,100903.81
2022-11-17T11:27:51.390Z,100913.25
2022-11-17T11:30:22.693Z,100925.91
2022-11-17T11:32:58.245Z,100931.44
2022-11-17T11:36:02.088Z,100923.50
2022-11-17T11:38:38.056Z,100925.13
2022-11-17T11:41:37.823Z,100929.00
2022-11-17T11:44:46.794Z,100929.47
2022-11-17T11:47:35.390Z,100921.84
2022-11-17T11:50:27.498Z,100926.56
2022-11-17T11:53:20.824Z,100931.56
2022-11-17T11:55:56.972Z,100937.59
2022-11-17T11:58:27.609Z,100940.06
2022-11-17T12:01:08.408Z,100947.84
2022-11-17T12:03:43.395Z,100942.94
2022-11-17T12:06:37.796Z,100948.97
2022-11-17T12:09:22.187Z,100950.91
2022-11-17T12:12:02.933Z,100959.69
2022-11-17T12:14:39.022Z,100964.09
2022-11-17T12:17:28.298Z,100973.19
2022-11-17T12:20:10.423Z,100973.66
2022-11-17T12:23:03.569Z,100981.78
2022-11-17T12:25:39.920Z,100983.41
2022-11-17T12:28:31.250Z,100995.59
2022-11-17T12:31:34.560Z,100998.34
2022-11-17T12:34:04.712Z,101004.72
2022-11-17T12:36:36.469Z,101010.72
2022-11-17T12:39:12.536Z,101024.09
2022-11-17T12:42:07.639Z,101020.19
2022-11-17T12:45:03.624Z,101036.25
2022-11-17T12:48:11.173Z,101047.16
2022-11-17T12:51:09.630Z,101051.94
2022-11-17T12:53:58.315Z,101054.81
2022-11-17T12:56:49.873Z,101061.34
2022-11-17T12:59:41.728Z,101065.59
2022-11-17T13:02:35.110Z,101064.41
2022-11-17T13:05:24.814Z,101076.78
2022-11-17T13:08:21.141Z,101081.19
2022-11-17T13:10:51.933Z,101089.59
2022-11-17T13:13:26.372Z,101098.44
2022-11-17T13:16:01.053Z,101100.88
2022-11-17T13:18:33.362Z,101116.16
2022-11-17T13:21:04.960Z,101114.00
2022-11-17T13:23:36.299Z,101115.97
2022-11-17T13:26:22.061Z,101120.13
2022-11-17T13:29:15.496Z,101124.09
2022-11-17T13:31:45.789Z,101127.06
2022-11-17T13:34:16.320Z,101128.16
2022-11-17T13:37:03.323Z,101128.22
2022-11-17T13:39:33.805Z,101129.28
2022-11-17T13:42:05.732Z,101117.25
2022-11-17T13:44:36.748Z,101121.75
2022-11-17T13:47:41.690Z,101114.78
2022-11-17T13:50:27.592Z,101124.88
2022-11-17T13:53:24.439Z,101126.66
2022-11-17T13:55:55.692Z,101130.03
2022-11-17T13:58:38.410Z,101141.81
2022-11-17T14:01:09.115Z,101129.47
2022-11-17T14:03:45.107Z,101122.63
2022-11-17T14:06:16.962Z,101131.72
2022-11-17T14:09:05.498Z,101134.38
2022-11-17T14:11:35.897Z,101133.03
2022-11-17T14:14:16.143Z,101125.56
2022-11-17T14:16:47.817Z,101125.38
2022-11-17T14:19:18.106Z,101121.22
2022-11-17T14:22:19.757Z,101134.03
2022-11-17T14:24:54.188Z,101137.69
2022-11-17T14:27:30.188Z,101137.44
2022-11-17T14:30:00.531Z,101135.13
2022-11-17T14:32:30.536Z,101132.66
2022-11-17T14:35:02.063Z,101137.72
2022-11-17T14:37:35.267Z,101136.59
2022-11-17T14:40:07.405Z,101126.66
2022-11-17T14:42:37.683Z,101127.78
2022-11-17T14:45:08.225Z,101129.22
2022-11-17T14:47:38.552Z,101131.38
2022-11-17T14:50:10.067Z,101127.09
2022-11-17T14:52:41.804Z,101128.03
2022-11-17T14:55:12.986Z,101130.19
2022-11-17T14:57:44.031Z,101134.69
2022-11-17T15:00:20.159Z,101132.09
2022-11-17T15:02:50.977Z,101129.53
2022-11-17T15:05:21.511Z,101139.09
2022-11-17T15:07:52.115Z,101135.94
2022-11-17T15:10:22.223Z,101133.06
2022-11-17T15:12:53.187Z,101135.25
2022-11-17T15:15:23.458Z,101135.75
2022-11-17T15:17:53.740Z,101136.88
2022-11-17T15:20:24.204Z,101142.41
2022-11-17T15:22:57.802Z,101133.31
2022-11-17T15:25:30.578Z,101126.19
2022-11-17T15:28:00.857Z,101130.91
2022-11-17T15:30:31.755Z,101126.50
2022-11-17T15:33:03.367Z,101134.78
2022-11-17T15:35:34.646Z,101129.25
2022-11-17T15:38:04.458Z,101130.91
2022-11-17T15:40:34.731Z,101124.88
2022-11-17T15:43:39.379Z,101125.63
2022-11-17T15:46:11.301Z,101130.28
2022-11-17T15:48:46.460Z,101125.09
2022-11-17T15:51:19.248Z,101114.97
2022-11-17T15:53:50.963Z,101116.09
2022-11-17T15:56:26.756Z,101118.38
2022-11-17T15:59:05.146Z,101113.16
2022-11-17T16:01:37.759Z,101118.69
2022-11-17T16:04:14.469Z,101115.41
2022-11-17T16:06:47.021Z,101118.50
2022-11-17T16:09:18.250Z,101120.13
2022-11-17T16:11:48.574Z,101116.25
2022-11-17T16:14:19.370Z,101114.91
2022-11-17T16:16:50.193Z,101111.34
2022-11-17T16:19:21.004Z,101109.38
2022-11-17T16:21:52.268Z,101100.91
2022-11-17T16:24:22.096Z,101104.19
2022-11-17T16:26:53.473Z,101098.16
2022-11-17T16:29:23.799Z,101105.31
2022-11-17T16:31:53.989Z,101099.28
2022-11-17T16:34:24.764Z,101094.09
2022-11-17T16:36:55.032Z,101093.25
2022-11-17T16:39:25.203Z,101090.81
2022-11-17T16:41:56.726Z,101088.84
2022-11-17T16:44:27.134Z,101087.72
2022-11-17T16:46:58.970Z,101081.41
2022-11-17T16:49:32.261Z,101081.72
2022-11-17T16:52:02.507Z,101086.09
2022-11-17T16:54:32.785Z,101075.38
2022-11-17T16:57:02.880Z,101071.16
2022-11-17T16:59:33.240Z,101064.84
2022-11-17T17:02:03.480Z,101067.44
2022-11-17T17:04:33.856Z,101063.53
2022-11-17T17:07:04.707Z,101056.38
2022-11-17T17:09:35.216Z,101056.38
2022-11-17T17:12:05.656Z,101057.19
2022-11-17T17:14:35.873Z,101049.53
2022-11-17T17:17:06.100Z,101051.44
2022-11-17T17:19:36.314Z,101050.63
2022-11-17T17:22:06.480Z,101044.28
2022-11-17T17:24:36.979Z,101043.47
2022-11-17T17:27:09.360Z,101040.69
2022-11-17T17:29:39.690Z,101041.84
2022-11-17T17:32:10.330Z,101045.75
2022-11-17T17:34:40.436Z,101041.03
2022-11-17T17:37:10.809Z,101044.13
2022-11-17T17:39:41.044Z,101043.28
2022-11-17T17:42:11.167Z,101042.47
2022-11-17T17:44:41.373Z,101035.50
2022-11-17T17:47:11.605Z,101026.44
2022-11-17T17:49:41.865Z,101017.31
2022-11-17T17:52:13.980Z,101007.72
2022-11-17T17:54:44.433Z,101005.78
2022-11-17T17:57:14.522Z,100997.81
2022-11-17T17:59:44.820Z,100994.53
2022-11-17T18:02:14.857Z,100997.31
2022-11-17T18:04:44.893Z,100997.31
2022-11-17T18:07:15.150Z,100996.50
2022-11-17T18:09:45.366Z,100992.13
2022-11-17T18:12:15.605Z,100991.00
2022-11-17T18:14:46.274Z,100989.34
2022-11-17T18:17:16.528Z,100988.53
2022-11-17T18:19:46.770Z,100985.47
2022-11-17T18:22:17.892Z,100978.78
2022-11-17T18:24:47.725Z,100983.84
2022-11-17T18:27:19.596Z,100983.84
2022-11-17T18:29:51.389Z,100984.97
2022-11-17T18:32:21.760Z,100976.69
2022-11-17T18:34:52.185Z,100977.19
2022-11-17T18:37:22.512Z,100972.28
2022-11-17T18:39:52.683Z,100978.94
2022-11-17T18:42:22.989Z,100978.94
2022-11-17T18:44:53.296Z,100968.41
2022-11-17T18:47:23.528Z,100975.06
2022-11-17T18:49:55.428Z,100965.66
2022-11-17T18:52:31.124Z,100970.34
2022-11-17T18:55:01.849Z,100967.91
2022-11-17T18:57:32.081Z,100958.78
2022-11-17T19:00:02.449Z,100962.38
2022-11-17T19:02:32.766Z,100961.88
2022-11-17T19:05:02.957Z,100958.63
2022-11-17T19:07:35.089Z,100953.59
2022-11-17T19:10:05.462Z,100956.34
2022-11-17T19:12:35.883Z,100953.59
2022-11-17T19:15:06.343Z,100951.97
2022-11-17T19:17:36.648Z,100956.69
2022-11-17T19:20:07.360Z,100950.34
2022-11-17T19:22:37.706Z,100944.81
2022-11-17T19:25:08.408Z,100946.13
2022-11-17T19:27:38.612Z,100947.25
2022-11-17T19:30:10.617Z,100955.06
2022-11-17T19:32:41.237Z,100955.84
2022-11-17T19:35:15.876Z,100959.75
2022-11-17T19:37:47.596Z,100949.22
2022-11-17T19:40:18.425Z,100950.00
2022-11-17T19:42:50.678Z,100942.88
2022-11-17T19:45:21.580Z,100938.50
2022-11-17T19:47:51.946Z,100944.00
2022-11-17T19:50:22.185Z,100938.50
2022-11-17T19:52:52.762Z,100943.19
2022-11-17T19:55:23.045Z,100933.28
2022-11-17T19:57:53.488Z,100931.00
2022-11-17T20:00:23.940Z,100933.28
2022-11-17T20:02:54.477Z,100937.16
2022-11-17T20:05:24.743Z,100937.16
2022-11-17T20:07:55.043Z,100935.53
2022-11-17T20:10:25.595Z,100928.38
2022-11-17T20:12:55.886Z,100937.50
2022-11-17T20:15:39.511Z,100937.78
2022-11-17T20:18:09.731Z,100929.22
2022-11-17T20:20:40.028Z,100931.13
2022-11-17T20:23:10.750Z,100922.84
2022-11-17T20:25:40.985Z,100923.69
2022-11-17T20:28:11.237Z,100924.81
2022-11-17T20:30:41.831Z,100924.81
2022-11-17T20:33:12.032Z,100925.63
2022-11-17T20:35:42.295Z,100928.38
2022-11-17T20:38:15.672Z,100924.31
2022-11-17T20:40:46.180Z,100928.06
2022-11-17T20:43:16.440Z,100926.44
2022-11-17T20:45:47.758Z,100930.00
2022-11-17T20:48:18.178Z,100926.75
2022-11-17T20:51:10.294Z,100930.97
2022-11-17T20:53:41.625Z,100935.03
2022-11-17T20:56:13.543Z,100924.81
2022-11-17T20:58:44.247Z,100923.50
2022-11-17T21:01:26.149Z,100919.91
2022-11-17T21:03:56.707Z,100925.44
2022-11-17T21:06:27.126Z,100919.13
2022-11-17T21:08:57.532Z,100923.81
2022-11-17T21:11:46.407Z,100933.44
2022-11-17T21:14:17.305Z,100931.78
2022-11-17T21:16:52.052Z,100930.97
2022-11-17T21:19:23.094Z,100924.94
2022-11-17T21:21:56.645Z,100926.28
2022-11-17T21:24:28.131Z,100923.81
2022-11-17T21:26:59.104Z,100924.13
2022-11-17T21:29:29.913Z,100925.78
2022-11-17T21:32:00.348Z,100918.63
2022-11-17T21:34:30.562Z,100929.31
2022-11-17T21:37:00.786Z,100928.53
2022-11-17T21:39:30.790Z,100925.25
2022-11-17T21:42:01.986Z,100923.63
2022-11-17T21:44:32.209Z,100925.25
2022-11-17T21:47:02.842Z,100928.03
2022-11-17T21:49:33.070Z,100934.16
2022-11-17T21:52:03.141Z,100941.81
2022-11-17T21:54:33.155Z,100949.25
2022-11-17T21:57:03.404Z,100952.03
2022-11-17T21:59:33.712Z,100958.66
2022-11-17T22:02:03.979Z,100967.28
2022-11-17T22:04:34.001Z,100965.81
2022-11-17T22:07:04.597Z,100963.06
2022-11-17T22:09:34.801Z,100971.34
2022-11-17T22:12:05.588Z,100974.94
2022-11-17T22:14:35.797Z,100985.97
2022-11-17T22:17:05.948Z,100985.13
2022-11-17T22:19:36.270Z,100985.78
2022-11-17T22:22:06.601Z,100985.47
2022-11-17T22:24:39.551Z,100990.03
2022-11-17T22:27:10.067Z,100992.28
2022-11-17T22:29:40.433Z,100997.00
2022-11-17T22:32:10.647Z,100998.94
2022-11-17T22:34:40.882Z,101004.16
2022-11-17T22:37:11.125Z,101003.31
2022-11-17T22:39:41.366Z,101005.56
2022-11-17T22:42:11.777Z,101011.41
2022-11-17T22:44:42.186Z,101014.19
2022-11-17T22:48:47.554Z,101016.00
2022-11-17T22:51:41.306Z,101018.47
2022-11-17T22:54:11.960Z,101021.31
2022-11-17T22:56:42.172Z,101018.91
2022-11-17T22:59:12.733Z,101025.31
2022-11-17T23:01:42.803Z,101026.25
2022-11-17T23:04:14.153Z,101018.59
2022-11-17T23:06:44.350Z,101019.88
2022-11-17T23:09:16.320Z,101032.03
2022-11-17T23:11:47.009Z,101040.59
2022-11-17T23:14:17.297Z,101034.78
2022-11-17T23:16:47.532Z,101043.56
2022-11-17T23:19:17.795Z,101035.28
2022-11-17T23:21:48.122Z,101051.53
2022-11-17T23:24:18.077Z,101050.06
2022-11-17T23:26:48.068Z,101052.03
2022-11-17T23:29:18.185Z,101057.22
2022-11-17T23:31:48.660Z,101061.63
2022-11-17T23:34:19.636Z,101067.13
2022-11-17T23:36:49.841Z,101069.91
2022-11-17T23:39:19.855Z,101054.47
2022-11-17T23:41:50.535Z,101060.81
2022-11-17T23:44:21.263Z,101058.88
2022-11-17T23:46:52.924Z,101067.97
2022-11-17T23:49:23.096Z,101069.91
2022-11-17T23:51:53.113Z,101075.41
2022-11-17T23:54:24.788Z,101070.41
2022-11-17T23:56:55.346Z,101076.75
2022-11-17T23:59:25.502Z,101083.91
